sensor_id;sensor_type;location;lat;lon;timestamp;temperature;humidity
18712;DHT22;9485;49.386;8.674;2023-02-03T00:02:25;10.80;91.10
18712;DHT22;9485;49.386;8.674;2023-02-03T00:07:47;10.80;91.10
18712;DHT22;9485;49.386;8.674;2023-02-03T00:13:08;10.80;91.10
18712;DHT22;9485;49.386;8.674;2023-02-03T00:18:28;10.80;91.20
18712;DHT22;9485;49.386;8.674;2023-02-03T00:23:50;10.80;91.30
18712;DHT22;9485;49.386;8.674;2023-02-03T00:29:12;10.80;91.30
18712;DHT22;9485;49.386;8.674;2023-02-03T00:34:33;10.80;91.30
18712;DHT22;9485;49.386;8.674;2023-02-03T00:39:55;10.90;91.30
18712;DHT22;9485;49.386;8.674;2023-02-03T00:45:15;10.80;91.20
18712;DHT22;9485;49.386;8.674;2023-02-03T00:50:36;10.80;91.30
18712;DHT22;9485;49.386;8.674;2023-02-03T00:55:58;10.90;91.30
18712;DHT22;9485;49.386;8.674;2023-02-03T01:01:19;10.90;91.40
18712;DHT22;9485;49.386;8.674;2023-02-03T01:06:40;10.90;91.40
18712;DHT22;9485;49.386;8.674;2023-02-03T01:12:03;10.90;91.50
18712;DHT22;9485;49.386;8.674;2023-02-03T01:17:24;10.90;91.50
18712;DHT22;9485;49.386;8.674;2023-02-03T01:22:45;10.90;91.40
18712;DHT22;9485;49.386;8.674;2023-02-03T01:28:08;10.90;91.50
18712;DHT22;9485;49.386;8.674;2023-02-03T01:33:28;11.00;91.50
18712;DHT22;9485;49.386;8.674;2023-02-03T01:38:50;11.00;91.60
18712;DHT22;9485;49.386;8.674;2023-02-03T01:44:44;11.00;91.60
18712;DHT22;9485;49.386;8.674;2023-02-03T01:50:10;11.00;91.20
18712;DHT22;9485;49.386;8.674;2023-02-03T01:55:38;11.00;91.50
18712;DHT22;9485;49.386;8.674;2023-02-03T02:01:02;11.00;91.50
18712;DHT22;9485;49.386;8.674;2023-02-03T02:06:23;11.00;91.50
18712;DHT22;9485;49.386;8.674;2023-02-03T02:11:44;11.00;91.50
18712;DHT22;9485;49.386;8.674;2023-02-03T02:17:13;10.90;91.50
18712;DHT22;9485;49.386;8.674;2023-02-03T02:22:57;10.90;91.30
18712;DHT22;9485;49.386;8.674;2023-02-03T02:28:48;10.90;91.30
18712;DHT22;9485;49.386;8.674;2023-02-03T02:34:32;10.90;91.20
18712;DHT22;9485;49.386;8.674;2023-02-03T02:40:09;10.80;91.30
18712;DHT22;9485;49.386;8.674;2023-02-03T02:45:44;10.80;91.50
18712;DHT22;9485;49.386;8.674;2023-02-03T02:51:12;10.80;91.40
18712;DHT22;9485;49.386;8.674;2023-02-03T02:56:37;10.80;91.40
18712;DHT22;9485;49.386;8.674;2023-02-03T03:02:00;10.80;91.50
18712;DHT22;9485;49.386;8.674;2023-02-03T03:07:25;10.80;91.60
18712;DHT22;9485;49.386;8.674;2023-02-03T03:12:51;10.80;91.60
18712;DHT22;9485;49.386;8.674;2023-02-03T03:18:22;10.80;91.60
18712;DHT22;9485;49.386;8.674;2023-02-03T03:23:49;10.80;91.50
18712;DHT22;9485;49.386;8.674;2023-02-03T03:29:15;10.70;91.40
18712;DHT22;9485;49.386;8.674;2023-02-03T03:34:38;10.70;91.50
18712;DHT22;9485;49.386;8.674;2023-02-03T03:40:06;10.70;91.70
18712;DHT22;9485;49.386;8.674;2023-02-03T03:45:34;10.70;91.70
18712;DHT22;9485;49.386;8.674;2023-02-03T03:51:03;10.70;91.80
18712;DHT22;9485;49.386;8.674;2023-02-03T03:56:33;10.60;91.80
18712;DHT22;9485;49.386;8.674;2023-02-03T04:01:58;10.60;91.70
18712;DHT22;9485;49.386;8.674;2023-02-03T04:07:22;10.50;91.80
18712;DHT22;9485;49.386;8.674;2023-02-03T04:12:43;10.40;91.80
18712;DHT22;9485;49.386;8.674;2023-02-03T04:18:05;10.30;91.90
18712;DHT22;9485;49.386;8.674;2023-02-03T04:23:25;10.20;92.00
18712;DHT22;9485;49.386;8.674;2023-02-03T04:28:47;10.10;92.20
18712;DHT22;9485;49.386;8.674;2023-02-03T04:34:07;10.00;92.30
18712;DHT22;9485;49.386;8.674;2023-02-03T04:39:28;10.00;92.50
18712;DHT22;9485;49.386;8.674;2023-02-03T04:44:53;9.90;92.70
18712;DHT22;9485;49.386;8.674;2023-02-03T04:50:14;9.90;92.80
18712;DHT22;9485;49.386;8.674;2023-02-03T04:55:34;9.90;92.90
18712;DHT22;9485;49.386;8.674;2023-02-03T05:00:57;9.90;93.00
18712;DHT22;9485;49.386;8.674;2023-02-03T05:06:21;9.90;93.00
18712;DHT22;9485;49.386;8.674;2023-02-03T05:11:43;9.90;93.10
18712;DHT22;9485;49.386;8.674;2023-02-03T05:17:05;9.90;93.10
18712;DHT22;9485;49.386;8.674;2023-02-03T05:22:25;10.00;93.20
18712;DHT22;9485;49.386;8.674;2023-02-03T05:27:46;10.00;93.50
18712;DHT22;9485;49.386;8.674;2023-02-03T05:33:07;10.00;93.20
18712;DHT22;9485;49.386;8.674;2023-02-03T05:38:28;10.10;93.20
18712;DHT22;9485;49.386;8.674;2023-02-03T05:43:48;10.10;93.30
18712;DHT22;9485;49.386;8.674;2023-02-03T05:49:10;10.10;93.30
18712;DHT22;9485;49.386;8.674;2023-02-03T05:54:31;10.10;93.30
18712;DHT22;9485;49.386;8.674;2023-02-03T05:59:51;10.20;93.40
18712;DHT22;9485;49.386;8.674;2023-02-03T06:05:13;10.20;93.40
18712;DHT22;9485;49.386;8.674;2023-02-03T06:10:34;10.20;93.40
18712;DHT22;9485;49.386;8.674;2023-02-03T06:15:56;10.20;93.30
18712;DHT22;9485;49.386;8.674;2023-02-03T06:21:18;10.20;93.30
18712;DHT22;9485;49.386;8.674;2023-02-03T06:26:39;10.20;93.30
18712;DHT22;9485;49.386;8.674;2023-02-03T06:32:00;10.10;93.30
18712;DHT22;9485;49.386;8.674;2023-02-03T06:37:22;10.10;93.70
18712;DHT22;9485;49.386;8.674;2023-02-03T06:42:44;10.10;93.40
18712;DHT22;9485;49.386;8.674;2023-02-03T06:48:06;10.10;93.50
18712;DHT22;9485;49.386;8.674;2023-02-03T06:53:27;10.10;93.50
18712;DHT22;9485;49.386;8.674;2023-02-03T06:58:48;10.10;93.50
18712;DHT22;9485;49.386;8.674;2023-02-03T07:04:09;10.10;93.60
18712;DHT22;9485;49.386;8.674;2023-02-03T07:09:31;10.10;93.60
18712;DHT22;9485;49.386;8.674;2023-02-03T07:14:51;10.10;93.60
18712;DHT22;9485;49.386;8.674;2023-02-03T07:20:12;10.10;93.70
18712;DHT22;9485;49.386;8.674;2023-02-03T07:25:34;10.10;93.70
18712;DHT22;9485;49.386;8.674;2023-02-03T07:30:55;10.10;93.70
18712;DHT22;9485;49.386;8.674;2023-02-03T07:36:16;10.10;93.80
18712;DHT22;9485;49.386;8.674;2023-02-03T07:41:38;10.10;93.90
18712;DHT22;9485;49.386;8.674;2023-02-03T07:46:58;10.10;93.90
18712;DHT22;9485;49.386;8.674;2023-02-03T07:52:20;10.10;94.00
18712;DHT22;9485;49.386;8.674;2023-02-03T07:57:42;10.10;94.00
18712;DHT22;9485;49.386;8.674;2023-02-03T08:03:03;10.20;94.10
18712;DHT22;9485;49.386;8.674;2023-02-03T08:08:24;10.20;94.00
18712;DHT22;9485;49.386;8.674;2023-02-03T08:13:46;10.20;94.10
18712;DHT22;9485;49.386;8.674;2023-02-03T08:19:07;10.20;94.10
18712;DHT22;9485;49.386;8.674;2023-02-03T08:24:27;10.20;94.10
18712;DHT22;9485;49.386;8.674;2023-02-03T08:29:49;10.30;94.10
18712;DHT22;9485;49.386;8.674;2023-02-03T08:35:10;10.30;94.10
18712;DHT22;9485;49.386;8.674;2023-02-03T08:40:31;10.30;94.20
18712;DHT22;9485;49.386;8.674;2023-02-03T08:45:53;10.40;94.20
18712;DHT22;9485;49.386;8.674;2023-02-03T08:51:15;10.40;94.20
18712;DHT22;9485;49.386;8.674;2023-02-03T08:56:37;10.40;94.20
18712;DHT22;9485;49.386;8.674;2023-02-03T09:01:59;10.50;94.30
18712;DHT22;9485;49.386;8.674;2023-02-03T09:07:20;10.50;94.20
18712;DHT22;9485;49.386;8.674;2023-02-03T09:12:40;10.60;94.20
18712;DHT22;9485;49.386;8.674;2023-02-03T09:18:02;10.60;94.10
18712;DHT22;9485;49.386;8.674;2023-02-03T09:23:22;10.70;94.10
18712;DHT22;9485;49.386;8.674;2023-02-03T09:28:43;10.60;94.10
18712;DHT22;9485;49.386;8.674;2023-02-03T09:34:06;10.70;94.00
18712;DHT22;9485;49.386;8.674;2023-02-03T09:39:28;10.70;94.00
18712;DHT22;9485;49.386;8.674;2023-02-03T09:44:57;10.80;94.10
18712;DHT22;9485;49.386;8.674;2023-02-03T09:50:33;10.80;94.10
18712;DHT22;9485;49.386;8.674;2023-02-03T09:55:59;10.80;94.10
18712;DHT22;9485;49.386;8.674;2023-02-03T10:01:23;10.90;94.20
18712;DHT22;9485;49.386;8.674;2023-02-03T10:06:50;10.90;94.20
18712;DHT22;9485;49.386;8.674;2023-02-03T10:12:29;11.00;94.10
18712;DHT22;9485;49.386;8.674;2023-02-03T10:18:12;11.10;93.90
18712;DHT22;9485;49.386;8.674;2023-02-03T10:23:40;11.10;93.80
18712;DHT22;9485;49.386;8.674;2023-02-03T10:29:07;11.10;93.90
18712;DHT22;9485;49.386;8.674;2023-02-03T10:34:39;11.10;94.00
18712;DHT22;9485;49.386;8.674;2023-02-03T10:40:11;11.10;94.10
18712;DHT22;9485;49.386;8.674;2023-02-03T10:45:36;11.20;94.00
18712;DHT22;9485;49.386;8.674;2023-02-03T10:50:57;11.20;93.90
18712;DHT22;9485;49.386;8.674;2023-02-03T10:56:22;11.20;94.00
18712;DHT22;9485;49.386;8.674;2023-02-03T11:01:48;11.20;94.00
18712;DHT22;9485;49.386;8.674;2023-02-03T11:07:23;11.20;94.00
18712;DHT22;9485;49.386;8.674;2023-02-03T11:12:45;11.20;93.80
18712;DHT22;9485;49.386;8.674;2023-02-03T11:18:26;11.20;94.00
18712;DHT22;9485;49.386;8.674;2023-02-03T11:23:57;11.20;93.80
18712;DHT22;9485;49.386;8.674;2023-02-03T11:29:24;11.20;94.00
18712;DHT22;9485;49.386;8.674;2023-02-03T11:34:52;11.20;94.00
18712;DHT22;9485;49.386;8.674;2023-02-03T11:40:24;11.20;94.00
18712;DHT22;9485;49.386;8.674;2023-02-03T11:45:49;11.20;93.80
18712;DHT22;9485;49.386;8.674;2023-02-03T11:51:19;11.20;93.90
18712;DHT22;9485;49.386;8.674;2023-02-03T11:57:13;11.20;94.00
18712;DHT22;9485;49.386;8.674;2023-02-03T12:03:13;11.30;93.80
18712;DHT22;9485;49.386;8.674;2023-02-03T12:08:53;11.30;93.70
18712;DHT22;9485;49.386;8.674;2023-02-03T12:14:33;11.30;93.60
18712;DHT22;9485;49.386;8.674;2023-02-03T12:20:23;11.40;93.60
18712;DHT22;9485;49.386;8.674;2023-02-03T12:26:02;11.50;93.40
18712;DHT22;9485;49.386;8.674;2023-02-03T12:31:38;11.40;93.50
18712;DHT22;9485;49.386;8.674;2023-02-03T12:37:07;11.40;93.50
18712;DHT22;9485;49.386;8.674;2023-02-03T12:42:36;11.40;93.50
18712;DHT22;9485;49.386;8.674;2023-02-03T12:48:03;11.40;93.70
18712;DHT22;9485;49.386;8.674;2023-02-03T12:53:33;11.40;93.60
18712;DHT22;9485;49.386;8.674;2023-02-03T12:59:02;11.40;93.60
18712;DHT22;9485;49.386;8.674;2023-02-03T13:04:32;11.50;93.70
18712;DHT22;9485;49.386;8.674;2023-02-03T13:09:59;11.50;93.60
18712;DHT22;9485;49.386;8.674;2023-02-03T13:15:27;11.60;93.60
18712;DHT22;9485;49.386;8.674;2023-02-03T13:20:51;11.60;93.40
18712;DHT22;9485;49.386;8.674;2023-02-03T13:26:35;11.70;93.50
18712;DHT22;9485;49.386;8.674;2023-02-03T13:32:25;11.80;93.30
18712;DHT22;9485;49.386;8.674;2023-02-03T13:38:13;11.90;93.40
18712;DHT22;9485;49.386;8.674;2023-02-03T13:43:55;12.00;93.20
18712;DHT22;9485;49.386;8.674;2023-02-03T13:49:22;12.00;93.20
18712;DHT22;9485;49.386;8.674;2023-02-03T13:54:46;12.00;93.20
18712;DHT22;9485;49.386;8.674;2023-02-03T14:06:55;12.00;92.70
18712;DHT22;9485;49.386;8.674;2023-02-03T14:12:32;12.10;92.80
18712;DHT22;9485;49.386;8.674;2023-02-03T14:17:57;12.00;93.00
18712;DHT22;9485;49.386;8.674;2023-02-03T14:23:26;12.00;93.10
18712;DHT22;9485;49.386;8.674;2023-02-03T14:28:54;12.10;92.90
18712;DHT22;9485;49.386;8.674;2023-02-03T14:34:16;12.10;92.90
18712;DHT22;9485;49.386;8.674;2023-02-03T14:40:22;12.10;92.90
18712;DHT22;9485;49.386;8.674;2023-02-03T14:46:26;12.10;92.50
18712;DHT22;9485;49.386;8.674;2023-02-03T14:52:15;12.10;92.60
18712;DHT22;9485;49.386;8.674;2023-02-03T14:57:49;12.10;92.60
18712;DHT22;9485;49.386;8.674;2023-02-03T15:03:26;12.10;92.80
18712;DHT22;9485;49.386;8.674;2023-02-03T15:08:50;12.10;92.40
18712;DHT22;9485;49.386;8.674;2023-02-03T15:14:20;12.10;92.90
18712;DHT22;9485;49.386;8.674;2023-02-03T15:19:42;12.10;92.80
18712;DHT22;9485;49.386;8.674;2023-02-03T15:25:15;12.20;92.90
18712;DHT22;9485;49.386;8.674;2023-02-03T15:30:39;12.20;92.60
18712;DHT22;9485;49.386;8.674;2023-02-03T15:36:29;12.20;92.80
18712;DHT22;9485;49.386;8.674;2023-02-03T15:41:59;12.20;92.70
18712;DHT22;9485;49.386;8.674;2023-02-03T15:47:25;12.10;92.60
18712;DHT22;9485;49.386;8.674;2023-02-03T15:52:53;12.10;92.60
18712;DHT22;9485;49.386;8.674;2023-02-03T15:58:22;12.10;92.60
18712;DHT22;9485;49.386;8.674;2023-02-03T16:03:47;12.00;92.40
18712;DHT22;9485;49.386;8.674;2023-02-03T16:09:29;12.00;92.50
18712;DHT22;9485;49.386;8.674;2023-02-03T16:14:54;12.00;92.60
18712;DHT22;9485;49.386;8.674;2023-02-03T16:20:23;11.90;92.60
18712;DHT22;9485;49.386;8.674;2023-02-03T16:26:05;11.90;92.70
18712;DHT22;9485;49.386;8.674;2023-02-03T16:31:41;11.80;92.70
18712;DHT22;9485;49.386;8.674;2023-02-03T16:37:24;11.80;92.90
18712;DHT22;9485;49.386;8.674;2023-02-03T16:43:04;11.80;93.10
18712;DHT22;9485;49.386;8.674;2023-02-03T16:48:49;11.80;93.10
18712;DHT22;9485;49.386;8.674;2023-02-03T16:54:27;11.70;92.90
18712;DHT22;9485;49.386;8.674;2023-02-03T16:59:48;11.70;93.20
18712;DHT22;9485;49.386;8.674;2023-02-03T17:05:10;11.70;93.20
18712;DHT22;9485;49.386;8.674;2023-02-03T17:10:32;11.70;93.20
18712;DHT22;9485;49.386;8.674;2023-02-03T17:15:53;11.70;93.30
18712;DHT22;9485;49.386;8.674;2023-02-03T17:21:18;11.70;93.20
18712;DHT22;9485;49.386;8.674;2023-02-03T17:26:40;11.70;93.20
18712;DHT22;9485;49.386;8.674;2023-02-03T17:32:00;11.70;93.10
18712;DHT22;9485;49.386;8.674;2023-02-03T17:37:22;11.60;93.10
18712;DHT22;9485;49.386;8.674;2023-02-03T17:42:43;11.60;93.20
18712;DHT22;9485;49.386;8.674;2023-02-03T17:48:04;11.50;93.20
18712;DHT22;9485;49.386;8.674;2023-02-03T17:53:26;11.50;93.20
18712;DHT22;9485;49.386;8.674;2023-02-03T17:58:46;11.40;93.30
18712;DHT22;9485;49.386;8.674;2023-02-03T18:04:07;11.40;93.40
18712;DHT22;9485;49.386;8.674;2023-02-03T18:09:30;11.40;93.60
18712;DHT22;9485;49.386;8.674;2023-02-03T18:14:50;11.40;93.60
18712;DHT22;9485;49.386;8.674;2023-02-03T18:20:11;11.30;93.70
18712;DHT22;9485;49.386;8.674;2023-02-03T18:25:35;11.30;93.70
18712;DHT22;9485;49.386;8.674;2023-02-03T18:30:59;11.40;93.70
18712;DHT22;9485;49.386;8.674;2023-02-03T18:36:22;11.40;93.80
18712;DHT22;9485;49.386;8.674;2023-02-03T18:41:44;11.40;93.80
18712;DHT22;9485;49.386;8.674;2023-02-03T18:47:04;11.40;93.90
18712;DHT22;9485;49.386;8.674;2023-02-03T18:52:25;11.40;93.90
18712;DHT22;9485;49.386;8.674;2023-02-03T18:57:48;11.50;93.80
18712;DHT22;9485;49.386;8.674;2023-02-03T19:03:08;11.50;93.90
18712;DHT22;9485;49.386;8.674;2023-02-03T19:08:29;11.50;94.00
18712;DHT22;9485;49.386;8.674;2023-02-03T19:13:51;11.60;94.00
18712;DHT22;9485;49.386;8.674;2023-02-03T19:19:12;11.60;94.00
18712;DHT22;9485;49.386;8.674;2023-02-03T19:24:33;11.60;93.90
18712;DHT22;9485;49.386;8.674;2023-02-03T19:29:54;11.60;94.00
18712;DHT22;9485;49.386;8.674;2023-02-03T19:35:15;11.70;94.00
18712;DHT22;9485;49.386;8.674;2023-02-03T19:40:36;11.70;94.00
18712;DHT22;9485;49.386;8.674;2023-02-03T19:46:01;11.70;94.00
18712;DHT22;9485;49.386;8.674;2023-02-03T19:51:21;11.70;94.00
18712;DHT22;9485;49.386;8.674;2023-02-03T19:56:42;11.70;94.00
18712;DHT22;9485;49.386;8.674;2023-02-03T20:02:04;11.70;94.00
18712;DHT22;9485;49.386;8.674;2023-02-03T20:07:25;11.70;93.90
18712;DHT22;9485;49.386;8.674;2023-02-03T20:12:50;11.70;94.00
18712;DHT22;9485;49.386;8.674;2023-02-03T20:18:12;11.70;94.00
18712;DHT22;9485;49.386;8.674;2023-02-03T20:23:33;11.80;94.00
18712;DHT22;9485;49.386;8.674;2023-02-03T20:28:53;11.80;94.10
18712;DHT22;9485;49.386;8.674;2023-02-03T20:34:15;11.80;94.10
18712;DHT22;9485;49.386;8.674;2023-02-03T20:39:35;11.80;94.00
18712;DHT22;9485;49.386;8.674;2023-02-03T20:44:56;11.90;94.00
18712;DHT22;9485;49.386;8.674;2023-02-03T20:50:19;11.90;94.00
18712;DHT22;9485;49.386;8.674;2023-02-03T20:55:41;11.90;94.00
18712;DHT22;9485;49.386;8.674;2023-02-03T21:01:01;11.90;94.00
18712;DHT22;9485;49.386;8.674;2023-02-03T21:06:32;12.00;93.90
18712;DHT22;9485;49.386;8.674;2023-02-03T21:11:54;12.00;93.90
18712;DHT22;9485;49.386;8.674;2023-02-03T21:17:16;12.00;93.70
18712;DHT22;9485;49.386;8.674;2023-02-03T21:22:39;12.00;93.70
18712;DHT22;9485;49.386;8.674;2023-02-03T21:28:00;12.10;93.10
18712;DHT22;9485;49.386;8.674;2023-02-03T21:33:28;12.10;93.40
18712;DHT22;9485;49.386;8.674;2023-02-03T21:38:57;12.10;93.20
18712;DHT22;9485;49.386;8.674;2023-02-03T21:44:27;12.20;93.50
18712;DHT22;9485;49.386;8.674;2023-02-03T21:49:50;12.20;93.40
18712;DHT22;9485;49.386;8.674;2023-02-03T21:55:14;12.10;93.20
18712;DHT22;9485;49.386;8.674;2023-02-03T22:00:38;12.20;93.10
18712;DHT22;9485;49.386;8.674;2023-02-03T22:06:15;12.20;93.00
18712;DHT22;9485;49.386;8.674;2023-02-03T22:11:42;12.20;93.00
18712;DHT22;9485;49.386;8.674;2023-02-03T22:17:03;12.20;93.00
18712;DHT22;9485;49.386;8.674;2023-02-03T22:22:23;12.20;93.10
18712;DHT22;9485;49.386;8.674;2023-02-03T22:27:45;12.20;93.20
18712;DHT22;9485;49.386;8.674;2023-02-03T22:33:06;12.20;93.00
18712;DHT22;9485;49.386;8.674;2023-02-03T22:38:26;12.20;93.20
18712;DHT22;9485;49.386;8.674;2023-02-03T22:43:48;12.20;93.20
18712;DHT22;9485;49.386;8.674;2023-02-03T22:49:08;12.20;93.00
18712;DHT22;9485;49.386;8.674;2023-02-03T22:54:29;12.20;93.20
18712;DHT22;9485;49.386;8.674;2023-02-03T22:59:51;12.20;93.20
18712;DHT22;9485;49.386;8.674;2023-02-03T23:05:11;12.20;93.10
18712;DHT22;9485;49.386;8.674;2023-02-03T23:10:32;12.30;93.10
18712;DHT22;9485;49.386;8.674;2023-02-03T23:15:54;12.20;92.50
18712;DHT22;9485;49.386;8.674;2023-02-03T23:21:15;12.30;92.90
18712;DHT22;9485;49.386;8.674;2023-02-03T23:26:35;12.30;92.90
18712;DHT22;9485;49.386;8.674;2023-02-03T23:31:57;12.30;93.00
18712;DHT22;9485;49.386;8.674;2023-02-03T23:37:18;12.30;93.10
18712;DHT22;9485;49.386;8.674;2023-02-03T23:42:38;12.20;92.90
18712;DHT22;9485;49.386;8.674;2023-02-03T23:48:00;12.30;92.90
18712;DHT22;9485;49.386;8.674;2023-02-03T23:53:21;12.30;92.90
18712;DHT22;9485;49.386;8.674;2023-02-03T23:58:42;12.30;93.00
